Time;durP1;ratioP1;P1;durP2;ratioP2;P2;SDS_P1;SDS_P2;PMS_P1;PMS_P2;Temp;Humidity;BMP_temperature;BMP_pressure;BME280_temperature;BME280_humidity;BME280_pressure;Samples;Min_cycle;Max_cycle;Signal;HPM_P1;HPM_P2
2020/12/26 00:00:10;;;;;;;20.38;13.15;;;;;;;-1.57;95.61;99636.84;4898961;29;20032;-71
2020/12/26 00:02:35;;;;;;;24.80;12.95;;;;;;;-1.34;96.73;99637.84;4898957;29;20441;-71
2020/12/26 00:05:01;;;;;;;20.65;13.05;;;;;;;-1.42;96.02;99636.63;4898763;29;20032;-71
2020/12/26 00:07:26;;;;;;;24.63;13.75;;;;;;;-1.44;96.08;99635.72;4898658;29;20652;-71
2020/12/26 00:09:51;;;;;;;24.70;12.95;;;;;;;-1.42;96.20;99626.47;4898518;29;20036;-71
2020/12/26 00:12:17;;;;;;;20.08;13.20;;;;;;;-1.50;95.72;99627.81;4898615;29;20024;-71
2020/12/26 00:14:42;;;;;;;23.17;13.02;;;;;;;-1.62;95.50;99629.81;4898694;29;20061;-71
2020/12/26 00:17:07;;;;;;;18.23;12.27;;;;;;;-1.61;96.06;99634.09;4898520;29;20033;-72
2020/12/26 00:19:33;;;;;;;21.73;12.95;;;;;;;-1.77;95.46;99641.84;4898440;29;20494;-71
2020/12/26 00:21:58;;;;;;;20.95;13.20;;;;;;;-1.72;96.07;99627.69;4898436;29;20037;-72
2020/12/26 00:24:23;;;;;;;20.85;12.45;;;;;;;-1.88;95.89;99634.63;4898415;29;20028;-71
2020/12/26 00:26:48;;;;;;;24.98;12.50;;;;;;;-1.94;96.12;99634.31;4898280;29;20043;-71
2020/12/26 00:29:14;;;;;;;21.30;12.18;;;;;;;-1.95;96.55;99632.59;4898485;29;20039;-71
2020/12/26 00:31:39;;;;;;;22.90;12.23;;;;;;;-2.09;96.38;99623.47;4898221;29;20111;-72
2020/12/26 00:34:05;;;;;;;23.25;12.77;;;;;;;-2.10;96.39;99621.75;4898427;29;20055;-71
2020/12/26 00:36:30;;;;;;;22.30;11.52;;;;;;;-2.08;96.40;99625.22;4898168;29;20506;-71
2020/12/26 00:38:55;;;;;;;18.08;11.85;;;;;;;-1.93;97.39;99614.91;4898285;29;20489;-71
2020/12/26 00:41:21;;;;;;;21.20;13.38;;;;;;;-1.87;97.30;99610.97;4898033;29;20035;-71
2020/12/26 00:43:46;;;;;;;20.45;12.32;;;;;;;-2.01;97.08;99616.22;4898263;29;20060;-71
2020/12/26 00:46:11;;;;;;;21.80;12.88;;;;;;;-2.11;96.52;99615.81;4897866;29;20363;-71
2020/12/26 00:48:37;;;;;;;19.23;12.60;;;;;;;-2.11;97.00;99620.00;4898216;29;20037;-71
2020/12/26 00:51:02;;;;;;;20.58;12.73;;;;;;;-1.87;96.81;99621.13;4897870;29;20044;-71
2020/12/26 00:53:28;;;;;;;27.58;12.93;;;;;;;-2.02;96.17;99620.44;4898097;29;20040;-77
2020/12/26 00:55:54;;;;;;;22.52;12.18;;;;;;;-2.11;96.15;99640.31;4897404;29;20222;-78
2020/12/26 00:58:19;;;;;;;19.25;12.65;;;;;;;-2.03;96.26;99644.09;4898145;29;20148;-77
2020/12/26 08:02:48;;;;;;;30.13;17.20;;;;;;;0.07;91.17;99788.75;4894096;29;20113;-74
2020/12/26 08:05:18;;;;;;;27.42;17.25;;;;;;;-0.09;91.45;99787.25;4895318;29;20040;-74
2020/12/26 08:07:44;;;;;;;30.17;17.13;;;;;;;0.11;91.79;99777.88;4898520;29;20554;-74
2020/12/26 08:10:12;;;;;;;25.75;16.95;;;;;;;0.11;90.67;99780.41;4898715;29;20029;-74
2020/12/26 08:12:37;;;;;;;28.50;15.77;;;;;;;0.04;90.10;99780.97;4879996;29;20025;-75
2020/12/26 08:15:03;;;;;;;22.85;14.68;;;;;;;0.13;89.76;99783.88;4902037;23;20043;-69
2020/12/26 08:17:29;;;;;;;24.92;15.05;;;;;;;0.05;91.01;99785.28;4916676;29;20401;-69
2020/12/26 08:20:01;;;;;;;27.77;15.82;;;;;;;0.36;90.29;99777.16;4917706;29;20044;-69
2020/12/26 08:22:27;;;;;;;36.55;18.80;;;;;;;0.19;90.61;99779.06;4917305;29;20483;-70
2020/12/26 08:25:23;;;;;;;36.25;19.38;;;;;;;0.37;89.79;99778.00;4914869;29;20047;-70
2020/12/26 08:27:49;;;;;;;30.35;17.35;;;;;;;0.33;89.47;99786.34;4923770;29;20564;-70
2020/12/26 08:30:22;;;;;;;26.60;16.00;;;;;;;0.64;89.26;99779.06;4917153;29;20028;-70
2020/12/26 08:33:24;;;;;;;24.77;15.57;;;;;;;1.03;87.30;99781.34;4917251;29;20043;-71
2020/12/26 08:36:14;;;;;;;23.48;13.52;;;;;;;1.45;85.57;99768.34;4896879;29;20029;-69
2020/12/26 08:38:48;;;;;;;19.10;11.90;;;;;;;1.82;84.45;99761.94;4898567;29;20032;-70
2020/12/26 08:41:16;;;;;;;22.35;13.45;;;;;;;2.38;80.55;99752.63;4898258;29;20037;-70
2020/12/26 08:43:42;;;;;;;20.27;13.02;;;;;;;1.86;82.26;99756.09;4916924;29;20377;-69
2020/12/26 08:46:40;;;;;;;22.48;12.63;;;;;;;2.65;79.66;99758.56;4917146;29;20107;-69
2020/12/26 08:49:06;;;;;;;22.13;12.07;;;;;;;2.27;81.12;99755.72;4916944;29;20031;-69
2020/12/26 08:51:31;;;;;;;17.00;12.02;;;;;;;2.23;80.62;99764.13;4915856;29;20152;-69
2020/12/26 08:53:56;;;;;;;19.13;11.88;;;;;;;2.84;80.18;99760.81;4916615;29;20028;-68
2020/12/26 08:56:38;;;;;;;16.40;11.52;;;;;;;3.05;77.59;99765.69;4903219;29;20060;-69
2020/12/26 08:59:03;;;;;;;17.85;10.60;;;;;;;2.74;77.36;99769.06;4897789;29;20566;-69
2020/12/26 09:01:29;;;;;;;15.73;10.63;;;;;;;3.30;74.82;99771.50;4897365;29;20107;-70
2020/12/26 09:03:56;;;;;;;22.35;11.57;;;;;;;4.11;72.93;99763.31;4903784;29;20489;-69
2020/12/26 09:06:33;;;;;;;17.20;10.30;;;;;;;4.64;72.88;99768.75;4916310;29;20111;-69
2020/12/26 09:09:14;;;;;;;11.68;8.43;;;;;;;5.25;66.93;99775.16;4915798;29;20028;-69
2020/12/26 09:11:39;;;;;;;13.55;8.65;;;;;;;6.26;62.25;99764.09;4916774;29;20029;-70
2020/12/26 09:14:15;;;;;;;14.07;8.57;;;;;;;4.90;64.66;99777.03;4916476;29;20598;-69
2020/12/26 09:16:40;;;;;;;12.90;7.68;;;;;;;7.17;58.83;99768.75;4916121;29;20043;-70
2020/12/26 09:19:05;;;;;;;15.27;8.63;;;;;;;7.86;58.21;99770.31;4916196;29;20036;-70
2020/12/26 09:21:31;;;;;;;17.10;7.55;;;;;;;7.80;56.12;99770.25;4914910;29;20020;-70
2020/12/26 09:23:57;;;;;;;15.23;10.25;;;;;;;7.56;57.67;99776.06;4913554;29;20031;-69
2020/12/26 09:26:25;;;;;;;15.70;7.72;;;;;;;7.82;58.25;99776.28;4915302;29;20092;-69
2020/12/26 09:28:56;;;;;;;12.18;7.55;;;;;;;7.77;56.83;99784.84;4922204;29;20043;-70
2020/12/26 09:31:26;;;;;;;10.98;7.88;;;;;;;7.50;58.35;99798.34;4924553;29;20485;-71
2020/12/26 09:33:53;;;;;;;10.50;7.03;;;;;;;8.25;55.70;99792.13;4930031;29;20042;-71
2020/12/26 09:36:20;;;;;;;16.33;8.30;;;;;;;7.96;54.77;99797.91;4919087;29;20039;-71
2020/12/26 09:38:47;;;;;;;11.23;7.50;;;;;;;8.17;55.92;99792.09;4929356;29;20096;-70
2020/12/26 09:41:17;;;;;;;10.10;7.45;;;;;;;7.80;58.92;99806.38;4924613;29;20405;-70
2020/12/26 09:43:45;;;;;;;11.52;6.78;;;;;;;8.80;54.64;99805.47;4921843;29;20036;-71
2020/12/26 09:46:11;;;;;;;13.13;7.68;;;;;;;8.80;53.47;99799.41;4929912;29;20024;-71
2020/12/26 09:48:36;;;;;;;16.88;7.22;;;;;;;9.38;53.13;99805.75;4920152;29;20083;-72
2020/12/26 09:51:02;;;;;;;12.73;7.38;;;;;;;8.85;52.21;99808.94;4926696;29;20051;-71
2020/12/26 09:53:27;;;;;;;12.93;7.30;;;;;;;8.27;53.25;99803.38;4926886;29;20066;-71
2020/12/26 09:55:53;;;;;;;10.27;6.38;;;;;;;9.23;51.68;99800.47;4919802;29;20430;-71
2020/12/26 09:58:18;;;;;;;11.07;7.28;;;;;;;8.70;52.52;99803.66;4931319;29;20019;-71
2020/12/26 10:00:44;;;;;;;7.93;6.55;;;;;;;7.04;58.97;99815.81;4920325;29;20148;-71
2020/12/26 10:03:09;;;;;;;12.65;7.78;;;;;;;6.22;61.79;99813.78;4927121;29;20421;-71
2020/12/26 10:05:35;;;;;;;10.43;7.05;;;;;;;5.89;59.90;99816.59;4931717;29;20493;-71
2020/12/26 10:08:00;;;;;;;11.10;7.60;;;;;;;5.62;62.38;99817.00;4934250;29;20038;-71
2020/12/26 10:10:26;;;;;;;18.73;8.43;;;;;;;4.30;68.94;99814.22;4923944;29;20027;-71
2020/12/26 10:12:51;;;;;;;10.20;7.05;;;;;;;4.53;70.55;99803.59;4931890;29;20401;-71
2020/12/26 10:15:18;;;;;;;11.05;7.00;;;;;;;4.53;68.64;99801.88;4924487;29;20028;-71
2020/12/26 10:17:44;;;;;;;12.18;7.60;;;;;;;3.70;69.50;99819.53;4925015;29;20016;-71
2020/12/26 10:20:09;;;;;;;14.02;7.13;;;;;;;3.98;71.46;99815.13;4931089;29;20633;-71
2020/12/26 10:22:35;;;;;;;13.40;8.23;;;;;;;3.88;71.37;99814.00;4919395;29;20059;-71
2020/12/26 10:25:00;;;;;;;14.80;7.63;;;;;;;4.03;70.01;99805.84;4926598;29;20111;-71
2020/12/26 10:27:25;;;;;;;14.32;8.23;;;;;;;4.32;70.57;99807.41;4923264;29;20020;-71
2020/12/26 10:29:50;;;;;;;17.05;7.80;;;;;;;4.19;71.81;99805.38;4928525;29;20059;-71
2020/12/26 10:32:16;;;;;;;11.13;7.82;;;;;;;4.17;70.49;99801.91;4917358;29;20485;-71
2020/12/26 10:34:41;;;;;;;10.43;7.72;;;;;;;4.64;68.88;99789.28;4928637;29;20074;-71
2020/12/26 10:37:07;;;;;;;12.77;7.75;;;;;;;4.76;70.70;99794.72;4923565;29;20020;-71
2020/12/26 10:39:32;;;;;;;13.50;8.02;;;;;;;4.26;70.22;99793.56;4922308;29;20394;-71
2020/12/26 10:41:57;;;;;;;9.40;7.65;;;;;;;4.95;70.36;99792.53;4929869;29;20377;-72
2020/12/26 10:44:23;;;;;;;14.30;8.80;;;;;;;4.94;70.61;99788.25;4918402;29;20044;-70
2020/12/26 10:46:48;;;;;;;15.65;7.82;;;;;;;4.76;70.59;99784.44;4926064;29;20485;-71
2020/12/26 10:49:14;;;;;;;10.80;7.28;;;;;;;4.49;69.21;99783.81;4896274;29;20567;-71
2020/12/26 10:51:39;;;;;;;14.52;7.43;;;;;;;4.28;71.74;99779.94;4920936;29;20027;-71
2020/12/26 10:54:05;;;;;;;13.27;7.13;;;;;;;4.04;69.47;99774.22;4933507;29;20036;-71
2020/12/26 10:56:30;;;;;;;16.10;8.63;;;;;;;4.12;71.03;99777.84;4918260;29;20465;-71
2020/12/26 10:58:55;;;;;;;16.33;8.05;;;;;;;4.07;70.98;99784.56;4926926;29;20030;-71
2020/12/26 11:01:31;;;;;;;15.10;7.88;;;;;;;4.04;71.24;99774.22;4924838;29;20425;-71
2020/12/26 11:03:56;;;;;;;16.13;8.07;;;;;;;3.93;69.75;99767.97;4919227;29;20102;-71
2020/12/26 11:06:22;;;;;;;12.65;7.47;;;;;;;3.99;70.97;99765.56;4930558;29;20059;-71
2020/12/26 11:08:47;;;;;;;8.90;7.30;;;;;;;4.18;69.61;99752.34;4919005;29;20047;-71
2020/12/26 11:11:12;;;;;;;15.30;7.43;;;;;;;4.18;69.14;99744.66;4924511;29;20035;-71
2020/12/26 11:13:37;;;;;;;14.95;7.60;;;;;;;4.17;71.77;99742.94;4926844;29;20058;-71
2020/12/26 11:16:03;;;;;;;13.20;8.10;;;;;;;4.33;68.44;99742.44;4933203;29;20032;-71
2020/12/26 11:18:28;;;;;;;12.07;7.47;;;;;;;4.57;69.91;99736.09;4914491;29;20111;-71
2020/12/26 11:20:53;;;;;;;34.75;18.40;;;;;;;4.80;69.05;99732.31;4921162;29;20489;-71
2020/12/26 11:23:19;;;;;;;10.57;6.85;;;;;;;4.88;66.52;99733.34;4923651;29;20032;-71
2020/12/26 11:25:44;;;;;;;12.70;7.25;;;;;;;5.17;64.89;99725.31;4927836;29;20079;-71
2020/12/26 11:28:09;;;;;;;12.15;6.80;;;;;;;5.15;64.75;99719.31;4932782;29;20028;-71
2020/12/26 11:30:35;;;;;;;15.43;8.02;;;;;;;4.80;67.12;99719.50;4918443;29;20441;-71
2020/12/26 11:33:00;;;;;;;12.32;7.43;;;;;;;4.46;66.65;99715.34;4925485;29;20035;-72
2020/12/26 11:35:25;;;;;;;13.35;7.18;;;;;;;4.29;70.66;99717.53;4924846;29;20024;-71
2020/12/26 11:37:50;;;;;;;11.18;6.47;;;;;;;4.56;70.25;99716.41;4918960;29;20371;-72
2020/12/26 11:40:16;;;;;;;11.68;7.25;;;;;;;4.58;66.97;99712.16;4931362;29;20111;-71
2020/12/26 11:42:41;;;;;;;10.27;7.32;;;;;;;4.57;68.79;99707.88;4931710;29;20054;-72
2020/12/26 11:45:07;;;;;;;14.10;7.43;;;;;;;4.36;65.93;99696.34;4926429;29;20098;-71
2020/12/26 11:47:33;;;;;;;8.75;7.25;;;;;;;4.33;67.45;99700.53;4925754;29;20032;-71
2020/12/26 11:49:59;;;;;;;11.57;6.57;;;;;;;4.25;67.20;99694.34;4933481;29;20071;-71
2020/12/26 11:52:24;;;;;;;11.43;6.82;;;;;;;4.55;66.07;99692.47;4920882;29;20023;-71
2020/12/26 11:54:49;;;;;;;11.55;6.85;;;;;;;4.85;68.00;99692.22;4930618;29;20062;-71
2020/12/26 11:57:14;;;;;;;9.30;6.22;;;;;;;4.98;65.03;99698.47;4927129;29;20027;-71
2020/12/26 11:59:40;;;;;;;12.27;6.15;;;;;;;4.64;64.76;99699.47;4924021;29;20035;-72
2020/12/26 12:02:05;;;;;;;8.98;6.32;;;;;;;4.84;67.46;99695.63;4916197;29;20032;-71
2020/12/26 12:04:30;;;;;;;11.68;7.10;;;;;;;4.88;65.73;99687.13;4920094;29;20020;-71
2020/12/26 12:06:56;;;;;;;24.48;12.77;;;;;;;4.64;67.05;99686.63;4929543;29;20032;-71
2020/12/26 12:09:21;;;;;;;10.80;7.15;;;;;;;4.77;67.17;99680.91;4928171;29;20024;-72
2020/12/26 12:11:46;;;;;;;11.18;6.35;;;;;;;4.76;66.39;99675.75;4922884;29;20023;-71
2020/12/26 12:14:12;;;;;;;14.43;7.20;;;;;;;4.69;66.98;99687.63;4933181;29;20035;-71
2020/12/26 12:16:37;;;;;;;15.35;7.55;;;;;;;3.79;70.85;99690.75;4920647;29;20106;-71
2020/12/26 12:19:02;;;;;;;10.23;6.38;;;;;;;4.68;70.64;99683.28;4925465;29;20028;-71
2020/12/26 12:21:28;;;;;;;7.93;6.30;;;;;;;4.30;68.88;99685.94;4925113;29;20032;-71
2020/12/26 12:23:53;;;;;;;10.90;6.57;;;;;;;4.11;69.19;99688.94;4917200;29;20111;-70
2020/12/26 12:26:28;;;;;;;9.18;5.53;;;;;;;5.08;65.39;99689.22;4932975;29;20034;-70
2020/12/26 12:28:54;;;;;;;11.30;6.32;;;;;;;5.04;65.16;99675.44;4923762;29;20034;-71
2020/12/26 12:31:21;;;;;;;8.35;5.90;;;;;;;4.69;65.28;99685.03;4936189;29;20412;-70
2020/12/26 12:33:46;;;;;;;6.03;5.20;;;;;;;4.71;65.56;99683.38;4922605;29;20036;-71
2020/12/26 12:36:13;;;;;;;8.57;5.65;;;;;;;5.01;66.16;99672.81;4933922;29;20028;-70
2020/12/26 12:38:38;;;;;;;10.85;6.30;;;;;;;4.96;65.48;99681.28;4936152;29;20027;-69
2020/12/26 12:41:03;;;;;;;8.25;6.10;;;;;;;5.06;65.13;99672.91;4927968;29;20036;-71
2020/12/26 12:43:29;;;;;;;8.15;5.85;;;;;;;4.99;66.60;99683.91;4928286;29;20106;-72
2020/12/26 12:45:54;;;;;;;9.63;5.75;;;;;;;4.95;66.96;99676.97;4921119;29;20528;-71
2020/12/26 12:48:19;;;;;;;8.57;5.93;;;;;;;5.03;64.79;99676.28;4916934;29;20031;-72
2020/12/26 12:50:45;;;;;;;12.20;5.43;;;;;;;5.44;63.62;99677.84;4916672;29;20533;-72
2020/12/26 12:53:11;;;;;;;9.68;5.82;;;;;;;5.50;66.33;99675.38;4912827;29;20028;-72
2020/12/26 12:55:36;;;;;;;9.10;5.30;;;;;;;4.57;65.50;99679.66;4912421;29;20055;-73
2020/12/26 12:58:01;;;;;;;8.27;5.18;;;;;;;4.78;66.94;99669.78;4909467;29;20048;-73
2020/12/26 13:00:26;;;;;;;7.32;5.63;;;;;;;4.85;64.90;99666.53;4914835;29;20049;-73
2020/12/26 13:02:52;;;;;;;10.57;5.32;;;;;;;4.66;64.38;99668.72;4912203;29;20032;-73
2020/12/26 13:05:17;;;;;;;16.17;5.40;;;;;;;4.10;65.92;99666.66;4902785;29;20032;-72
2020/12/26 13:07:42;;;;;;;13.80;5.95;;;;;;;3.91;68.92;99664.50;4905970;29;20033;-72
2020/12/26 13:10:08;;;;;;;10.25;5.50;;;;;;;3.82;67.84;99671.19;4916784;29;20035;-72
2020/12/26 13:12:33;;;;;;;9.95;5.88;;;;;;;3.78;70.97;99668.50;4902607;29;20576;-73
2020/12/26 13:14:58;;;;;;;12.68;6.75;;;;;;;3.94;69.42;99669.72;4901197;29;20402;-73
2020/12/26 13:17:24;;;;;;;8.13;5.60;;;;;;;4.09;68.81;99659.81;4916539;29;20745;-70
2020/12/26 13:19:49;;;;;;;10.35;6.35;;;;;;;3.99;68.75;99653.63;4916535;29;20040;-70
2020/12/26 13:22:14;;;;;;;9.45;5.03;;;;;;;4.02;65.69;99648.56;4916512;29;20035;-70
2020/12/26 13:24:39;;;;;;;10.27;5.65;;;;;;;3.94;65.79;99655.22;4915286;29;20021;-72
2020/12/26 13:27:05;;;;;;;11.43;5.53;;;;;;;4.11;67.77;99642.78;4914847;29;20036;-72
2020/12/26 13:29:30;;;;;;;10.05;4.82;;;;;;;4.14;64.77;99637.69;4916335;29;20164;-72
2020/12/26 13:31:55;;;;;;;6.85;4.47;;;;;;;4.10;65.62;99631.63;4916617;29;20087;-73
2020/12/26 13:34:21;;;;;;;6.28;4.97;;;;;;;4.09;65.70;99629.91;4916405;29;20024;-73
2020/12/26 13:36:46;;;;;;;13.15;6.07;;;;;;;4.21;67.94;99624.19;4916258;29;20110;-73
2020/12/26 13:39:11;;;;;;;8.90;6.13;;;;;;;4.29;67.17;99624.31;4915969;29;20028;-72
2020/12/26 13:41:37;;;;;;;9.73;5.03;;;;;;;4.16;68.90;99627.47;4916050;29;20024;-73
2020/12/26 13:44:03;;;;;;;10.75;5.53;;;;;;;4.11;66.27;99628.25;4916191;29;20545;-74
2020/12/26 13:46:28;;;;;;;20.05;12.00;;;;;;;4.22;66.28;99625.03;4916503;29;20068;-74
2020/12/26 13:48:53;;;;;;;9.35;5.00;;;;;;;4.12;66.32;99624.00;4916037;29;20024;-73
2020/12/26 13:51:22;;;;;;;8.15;5.30;;;;;;;4.10;70.97;99623.06;4915683;29;20155;-73
2020/12/26 13:53:48;;;;;;;7.72;4.80;;;;;;;4.29;67.38;99622.63;4915897;29;20040;-73
2020/12/26 13:56:13;;;;;;;12.15;8.60;;;;;;;4.10;66.56;99620.50;4908116;29;20035;-74
2020/12/26 13:58:39;;;;;;;11.13;6.35;;;;;;;3.73;64.95;99614.59;4915542;29;20024;-73
2020/12/26 14:01:04;;;;;;;12.82;8.93;;;;;;;3.56;66.82;99605.63;4921728;29;20031;-73
2020/12/26 14:03:29;;;;;;;8.27;6.47;;;;;;;3.71;70.54;99613.66;4925144;29;20128;-76
2020/12/26 14:05:55;;;;;;;7.82;5.35;;;;;;;3.42;73.86;99612.13;4920721;29;20039;-75
2020/12/26 14:08:20;;;;;;;8.52;5.97;;;;;;;3.46;74.00;99611.38;4930840;29;20023;-75
2020/12/26 14:10:45;;;;;;;9.45;6.32;;;;;;;3.56;70.22;99615.88;4919345;29;20420;-73
2020/12/26 14:13:11;;;;;;;9.63;6.00;;;;;;;3.25;72.14;99610.03;4924010;29;20028;-73
2020/12/26 14:15:36;;;;;;;12.98;6.60;;;;;;;2.98;73.53;99615.31;4915641;29;20028;-75
2020/12/26 14:18:02;;;;;;;12.13;6.50;;;;;;;2.73;75.92;99621.47;4919067;29;20035;-75
2020/12/26 14:20:28;;;;;;;18.13;7.68;;;;;;;2.75;75.78;99627.50;4922196;29;20039;-73
2020/12/26 14:22:54;;;;;;;11.48;6.70;;;;;;;2.80;77.00;99623.41;4928368;29;20032;-73
2020/12/26 14:25:19;;;;;;;10.10;6.43;;;;;;;2.97;75.34;99612.72;4924278;29;20119;-75
2020/12/26 14:27:44;;;;;;;13.25;6.95;;;;;;;2.67;76.38;99623.03;4921523;29;20492;-74
2020/12/26 14:30:09;;;;;;;13.07;7.00;;;;;;;2.59;74.68;99612.56;4930702;29;20030;-74
2020/12/26 14:32:35;;;;;;;8.50;6.38;;;;;;;2.73;74.67;99603.56;4918332;29;20079;-74
2020/12/26 14:35:00;;;;;;;13.82;8.27;;;;;;;2.64;75.76;99603.31;4927175;29;20533;-73
2020/12/26 14:37:25;;;;;;;15.18;9.38;;;;;;;2.52;79.98;99592.78;4924917;29;20037;-74
2020/12/26 14:39:51;;;;;;;13.57;8.25;;;;;;;2.61;77.42;99598.16;4920559;29;20031;-74
2020/12/26 14:42:16;;;;;;;18.77;9.18;;;;;;;2.44;78.03;99590.00;4930499;29;20473;-74
2020/12/26 14:44:42;;;;;;;14.43;7.50;;;;;;;2.30;77.43;99587.06;4919060;29;20028;-74
2020/12/26 14:47:08;;;;;;;13.05;7.93;;;;;;;2.44;77.93;99589.13;4926122;29;20028;-73
2020/12/26 14:49:33;;;;;;;28.67;12.55;;;;;;;2.41;76.94;99589.03;4925732;29;20067;-74
2020/12/26 14:51:58;;;;;;;21.02;9.60;;;;;;;2.36;76.12;99577.81;4930147;29;20485;-75
2020/12/26 14:54:24;;;;;;;12.90;8.00;;;;;;;2.26;75.53;99577.56;4917769;29;20393;-74
2020/12/26 14:56:53;;;;;;;12.45;7.70;;;;;;;2.33;75.25;99583.72;4928553;29;20492;-74
2020/12/26 14:59:19;;;;;;;18.33;8.75;;;;;;;2.31;78.65;99578.53;4922885;29;20051;-75
2020/12/26 15:01:44;;;;;;;11.13;7.80;;;;;;;2.17;79.68;99579.84;4926851;29;20066;-76
2020/12/26 15:04:09;;;;;;;11.38;8.35;;;;;;;1.95;81.28;99569.84;4917923;29;20040;-75
2020/12/26 15:06:35;;;;;;;13.00;8.15;;;;;;;1.84;82.21;99566.09;4930022;29;20061;-75
2020/12/26 15:09:01;;;;;;;13.73;7.90;;;;;;;1.62;82.06;99557.81;4921105;29;20028;-74
2020/12/26 15:11:26;;;;;;;14.77;7.65;;;;;;;1.43;83.95;99565.72;4923197;29;20091;-74
2020/12/26 15:13:52;;;;;;;19.48;10.52;;;;;;;1.32;84.81;99562.84;4928209;29;20031;-73
2020/12/26 15:16:18;;;;;;;22.85;10.68;;;;;;;1.16;85.70;99556.41;4920426;29;20490;-73
2020/12/26 15:18:44;;;;;;;19.27;9.85;;;;;;;1.12;85.42;99554.56;4925555;29;20030;-74
2020/12/26 15:21:10;;;;;;;15.10;8.75;;;;;;;1.14;85.20;99557.16;4929347;29;20024;-73
2020/12/26 15:23:36;;;;;;;18.48;10.38;;;;;;;0.99;85.58;99557.53;4929614;29;20504;-73
2020/12/26 15:26:02;;;;;;;22.05;10.52;;;;;;;0.93;85.97;99558.19;4922847;29;20114;-73
2020/12/26 15:28:27;;;;;;;20.90;10.70;;;;;;;0.95;85.98;99550.59;4933760;29;20027;-74
2020/12/26 15:30:52;;;;;;;18.60;10.30;;;;;;;0.87;86.53;99554.56;4923998;29;20051;-73
2020/12/26 15:33:17;;;;;;;15.88;9.90;;;;;;;0.90;85.93;99552.13;4928183;29;20028;-73
2020/12/26 15:35:43;;;;;;;21.08;11.65;;;;;;;0.82;86.04;99553.53;4930473;29;20035;-74
2020/12/26 15:38:09;;;;;;;20.45;12.40;;;;;;;0.84;86.51;99557.88;4921374;29;20035;-74
2020/12/26 15:40:34;;;;;;;17.95;12.00;;;;;;;0.85;87.40;99554.50;4933717;29;20115;-74
2020/12/26 15:42:59;;;;;;;26.88;15.05;;;;;;;0.86;86.93;99553.69;4923278;29;20392;-74
2020/12/26 15:45:25;;;;;;;24.45;14.02;;;;;;;0.89;85.88;99540.19;4927330;29;20111;-74
2020/12/26 15:47:50;;;;;;;16.88;9.48;;;;;;;0.99;80.45;99543.06;4921883;29;20647;-74
2020/12/26 15:50:16;;;;;;;14.77;7.95;;;;;;;1.17;79.19;99541.94;4931158;29;20108;-74
2020/12/26 15:52:41;;;;;;;14.10;7.55;;;;;;;1.08;79.43;99539.09;4932920;29;20027;-75
2020/12/26 15:55:07;;;;;;;12.55;7.65;;;;;;;1.20;81.43;99547.13;4923973;29;20783;-75
2020/12/26 15:57:32;;;;;;;15.63;7.68;;;;;;;1.20;79.81;99553.09;4925773;29;20024;-76
2020/12/26 15:59:58;;;;;;;10.15;6.45;;;;;;;1.14;79.92;99546.94;4925917;29;20087;-75
2020/12/26 16:02:23;;;;;;;13.88;6.35;;;;;;;1.18;78.92;99553.88;4933170;29;20031;-75
2020/12/26 16:04:48;;;;;;;9.57;6.00;;;;;;;1.38;75.53;99536.63;4922649;29;20508;-74
2020/12/26 16:07:14;;;;;;;13.07;6.35;;;;;;;1.35;76.48;99541.63;4928074;29;20043;-74
2020/12/26 16:09:42;;;;;;;13.90;7.38;;;;;;;1.37;77.22;99550.22;4929356;29;20019;-74
2020/12/26 16:12:09;;;;;;;14.85;6.43;;;;;;;1.52;73.96;99530.25;4920802;29;20105;-74
2020/12/26 16:14:34;;;;;;;27.58;11.77;;;;;;;1.49;77.42;99545.47;4905414;29;20034;-74
2020/12/26 16:17:00;;;;;;;15.98;7.35;;;;;;;1.39;76.10;99539.22;4929666;29;20482;-74
2020/12/26 16:19:25;;;;;;;10.27;6.65;;;;;;;1.49;76.94;99540.38;4927490;29;20070;-74
2020/12/26 16:21:51;;;;;;;17.33;7.60;;;;;;;1.32;74.20;99536.44;4922680;29;20056;-74
2020/12/26 16:24:16;;;;;;;8.65;5.95;;;;;;;1.36;73.70;99533.19;4933018;29;20087;-74
2020/12/26 16:26:41;;;;;;;20.63;7.05;;;;;;;1.28;76.00;99538.91;4920092;29;20039;-74
2020/12/26 16:29:06;;;;;;;19.20;9.45;;;;;;;1.06;79.05;99533.94;4928709;29;20398;-74
2020/12/26 16:31:37;;;;;;;15.40;7.88;;;;;;;0.93;79.64;99544.56;4927940;29;20028;-75
2020/12/26 16:34:03;;;;;;;14.82;10.52;;;;;;;0.89;81.10;99537.63;4921379;29;20024;-75
2020/12/26 16:36:33;;;;;;;18.00;9.65;;;;;;;0.81;79.48;99539.06;4932684;29;20054;-75
2020/12/26 16:38:59;;;;;;;21.02;11.45;;;;;;;0.69;81.16;99550.59;4923321;29;20043;-75
2020/12/26 16:41:31;;;;;;;37.40;17.90;;;;;;;0.79;82.25;99544.13;4926063;29;20054;-75
2020/12/26 16:43:59;;;;;;;30.40;14.27;;;;;;;0.71;82.75;99554.03;4930935;29;20024;-75
2020/12/26 16:46:25;;;;;;;25.75;12.02;;;;;;;0.55;79.50;99549.25;4916966;29;20028;-75
2020/12/26 16:48:50;;;;;;;13.55;6.82;;;;;;;0.67;76.97;99539.47;4922076;29;20034;-75
2020/12/26 16:51:21;;;;;;;13.65;6.18;;;;;;;0.72;75.95;99535.38;4931855;29;20102;-75
2020/12/26 16:53:47;;;;;;;18.52;7.68;;;;;;;0.89;75.43;99530.84;4929500;29;20519;-73
2020/12/26 16:56:20;;;;;;;12.88;6.20;;;;;;;0.80;77.07;99530.53;4920175;29;20387;-73
2020/12/26 16:58:46;;;;;;;20.70;6.90;;;;;;;0.82;78.80;99538.22;4931070;29;20024;-73
2020/12/26 17:01:16;;;;;;;23.58;10.27;;;;;;;0.69;78.64;99542.94;4924713;29;20478;-73
2020/12/26 17:03:42;;;;;;;26.83;14.02;;;;;;;0.29;82.18;99539.81;4920788;29;20032;-73
2020/12/26 17:06:22;;;;;;;25.83;12.75;;;;;;;0.09;82.90;99534.88;4916601;29;20040;-73
2020/12/26 17:08:49;;;;;;;24.80;12.82;;;;;;;0.05;83.62;99530.53;4912784;29;20050;-74
2020/12/26 17:11:15;;;;;;;31.65;11.80;;;;;;;-0.09;84.12;99531.72;4926243;29;20031;-74
2020/12/26 17:13:41;;;;;;;36.35;17.98;;;;;;;-0.04;83.81;99525.97;4923541;29;20095;-74
2020/12/26 17:16:09;;;;;;;20.65;11.07;;;;;;;-0.08;85.17;99529.22;4931436;29;20115;-74
2020/12/26 17:18:35;;;;;;;24.23;11.80;;;;;;;-0.16;85.41;99529.72;4915804;29;20027;-74
2020/12/26 17:21:04;;;;;;;20.85;10.27;;;;;;;-0.26;84.34;99524.28;4928539;29;20028;-74
2020/12/26 17:23:29;;;;;;;24.00;11.13;;;;;;;-0.35;84.75;99523.94;4926840;29;20051;-74
2020/12/26 17:25:54;;;;;;;18.55;9.77;;;;;;;-0.41;85.70;99522.88;4921239;29;20316;-74
2020/12/26 17:28:20;;;;;;;18.35;9.23;;;;;;;-0.46;85.77;99525.22;4922001;29;20076;-74
2020/12/26 17:30:45;;;;;;;18.95;11.05;;;;;;;-0.52;85.71;99525.00;4925945;29;20024;-75
2020/12/26 17:33:10;;;;;;;24.17;11.30;;;;;;;-0.54;87.78;99516.44;4924223;29;20024;-75
2020/12/26 17:35:36;;;;;;;28.92;13.32;;;;;;;-0.51;84.67;99511.47;4923580;29;20036;-74
2020/12/26 17:38:01;;;;;;;24.38;11.38;;;;;;;-0.59;85.66;99511.16;4930375;29;20071;-74
2020/12/26 17:40:26;;;;;;;27.30;12.60;;;;;;;-0.75;86.70;99500.34;4919160;29;20039;-74
2020/12/26 17:42:52;;;;;;;27.00;11.63;;;;;;;-0.72;85.80;99495.41;4927905;29;20031;-74
2020/12/26 17:45:17;;;;;;;22.17;10.25;;;;;;;-0.63;86.88;99495.72;4924647;29;20038;-74
2020/12/26 17:47:42;;;;;;;16.23;9.77;;;;;;;-0.81;86.64;99489.13;4922365;29;20036;-74
2020/12/26 17:50:08;;;;;;;20.05;9.75;;;;;;;-0.81;87.01;99491.69;4927832;29;20027;-74
2020/12/26 17:52:37;;;;;;;12.88;8.07;;;;;;;-0.87;86.88;99496.53;4931222;29;20031;-73
2020/12/26 17:55:04;;;;;;;16.85;10.15;;;;;;;-0.91;86.37;99494.69;4922736;29;20024;-73
2020/12/26 17:57:29;;;;;;;14.43;9.13;;;;;;;-0.82;85.75;99495.03;4924046;29;20115;-74
2020/12/26 17:59:55;;;;;;;20.58;10.60;;;;;;;-0.85;86.29;99489.81;4929658;29;20055;-75
2020/12/26 18:02:20;;;;;;;15.50;9.40;;;;;;;-0.83;85.42;99485.66;4918911;29;20115;-73
2020/12/26 18:04:45;;;;;;;19.50;11.02;;;;;;;-0.90;85.71;99483.69;4929762;29;20032;-74
2020/12/26 18:07:11;;;;;;;32.55;13.73;;;;;;;-0.83;86.27;99472.06;4923215;29;20070;-74
2020/12/26 18:09:36;;;;;;;27.05;11.55;;;;;;;-0.85;85.99;99474.56;4923157;29;20032;-74
2020/12/26 18:12:01;;;;;;;23.05;10.35;;;;;;;-0.78;86.47;99471.44;4930019;29;20020;-74
2020/12/26 18:14:26;;;;;;;25.10;10.07;;;;;;;-0.84;86.91;99458.50;4918497;29;20019;-73
2020/12/26 18:16:52;;;;;;;14.13;8.15;;;;;;;-0.92;86.08;99451.38;4925531;29;20089;-73
2020/12/26 18:19:17;;;;;;;18.33;9.13;;;;;;;-0.98;87.69;99454.53;4924125;29;20366;-73
2020/12/26 18:21:48;;;;;;;14.35;8.10;;;;;;;-1.07;86.98;99454.19;4928929;29;20031;-73
2020/12/26 18:24:13;;;;;;;13.73;8.32;;;;;;;-1.06;86.27;99440.69;4918531;29;20390;-73
2020/12/26 18:26:38;;;;;;;34.88;12.77;;;;;;;-1.04;86.22;99441.59;4930249;29;20159;-73